createdAt,value
2018-03-27T00:02:24.848Z,88.30
2018-03-27T00:04:52.489Z,87.10
2018-03-27T00:07:20.874Z,89.00
2018-03-27T00:09:48.491Z,88.90
2018-03-27T00:12:16.120Z,89.10
2018-03-27T00:14:44.508Z,89.30
2018-03-27T00:17:12.145Z,89.30
2018-03-27T00:19:39.773Z,88.30
2018-03-27T00:22:07.401Z,89.60
2018-03-27T00:24:41.320Z,89.40
2018-03-27T00:27:08.453Z,89.40
2018-03-27T00:29:48.778Z,89.00
2018-03-27T00:32:28.328Z,88.90
2018-03-27T00:35:07.728Z,89.60
2018-03-27T00:37:47.327Z,89.20
2018-03-27T00:40:26.869Z,89.70
2018-03-27T00:42:56.324Z,89.50
2018-03-27T00:45:23.952Z,89.60
2018-03-27T00:47:51.638Z,90.30
2018-03-27T00:50:19.212Z,90.60
2018-03-27T00:52:46.846Z,90.70
2018-03-27T00:55:15.234Z,90.60
2018-03-27T00:57:42.847Z,90.60
2018-03-27T01:00:10.707Z,90.00
2018-03-27T01:02:38.360Z,89.30
2018-03-27T01:05:05.989Z,87.10
2018-03-27T01:07:33.608Z,86.90
2018-03-27T01:10:01.241Z,87.60
2018-03-27T01:12:28.864Z,85.50
2018-03-27T01:14:57.246Z,87.70
2018-03-27T01:17:25.633Z,86.30
2018-03-27T01:19:53.251Z,86.30
2018-03-27T01:22:20.881Z,86.50
2018-03-27T01:24:49.272Z,85.40
2018-03-27T01:27:16.901Z,85.40
2018-03-27T01:29:44.534Z,85.60
2018-03-27T01:32:12.162Z,87.20
2018-03-27T01:34:40.567Z,86.70
2018-03-27T01:37:08.186Z,86.70
2018-03-27T01:39:35.804Z,86.40
2018-03-27T01:42:03.420Z,86.70
2018-03-27T01:44:31.058Z,86.90
2018-03-27T01:46:58.686Z,87.40
2018-03-27T01:49:26.308Z,86.80
2018-03-27T01:51:53.924Z,87.70
2018-03-27T01:54:21.573Z,87.40
2018-03-27T01:56:49.183Z,88.00
2018-03-27T01:59:16.821Z,87.00
2018-03-27T02:01:44.437Z,87.10
2018-03-27T02:04:12.068Z,87.90
2018-03-27T02:06:39.692Z,87.60
2018-03-27T02:09:07.312Z,87.10
2018-03-27T02:11:34.954Z,87.60
2018-03-27T02:14:02.569Z,88.00
2018-03-27T02:16:30.202Z,88.90
2018-03-27T02:18:57.821Z,87.80
2018-03-27T02:21:26.209Z,87.60
2018-03-27T02:23:54.593Z,88.30
2018-03-27T02:26:22.985Z,88.10
2018-03-27T02:28:50.604Z,88.10
2018-03-27T02:31:18.234Z,89.00
2018-03-27T02:33:45.845Z,88.10
2018-03-27T02:36:13.468Z,89.10
2018-03-27T02:38:41.089Z,88.80
2018-03-27T02:41:08.720Z,89.00
2018-03-27T02:43:36.336Z,89.40
2018-03-27T02:46:04.729Z,89.10
2018-03-27T02:48:32.376Z,89.00
2018-03-27T02:51:00.002Z,89.50
2018-03-27T02:53:27.627Z,89.70
2018-03-27T02:55:55.249Z,89.50
2018-03-27T02:58:22.872Z,90.00
2018-03-27T03:00:50.712Z,89.80
2018-03-27T03:03:18.298Z,89.70
2018-03-27T03:05:45.930Z,90.10
2018-03-27T03:08:13.549Z,90.20
2018-03-27T03:10:41.170Z,90.40
2018-03-27T03:13:08.787Z,90.40
2018-03-27T03:15:36.409Z,90.50
2018-03-27T03:18:04.016Z,90.60
2018-03-27T03:20:31.639Z,90.70
2018-03-27T03:22:59.261Z,90.70
2018-03-27T03:25:26.882Z,90.70
2018-03-27T03:27:55.273Z,90.80
2018-03-27T03:30:30.945Z,90.80
2018-03-27T03:32:58.578Z,90.90
2018-03-27T03:35:26.968Z,90.80
2018-03-27T03:37:54.593Z,90.80
2018-03-27T03:40:22.215Z,90.80
2018-03-27T03:42:49.835Z,91.00
2018-03-27T03:45:17.453Z,91.30
2018-03-27T03:47:45.076Z,90.60
2018-03-27T03:50:12.701Z,90.80
2018-03-27T03:52:40.326Z,91.00
2018-03-27T03:55:08.713Z,90.60
2018-03-27T03:57:36.336Z,90.60
2018-03-27T04:00:03.971Z,91.20
2018-03-27T04:02:31.592Z,91.70
2018-03-27T04:04:59.989Z,91.30
2018-03-27T04:07:28.377Z,90.80
2018-03-27T04:09:55.999Z,90.70
2018-03-27T04:12:23.628Z,91.10
2018-03-27T04:14:51.249Z,90.20
2018-03-27T04:17:31.180Z,90.70
2018-03-27T04:19:58.805Z,90.70
2018-03-27T04:22:26.438Z,90.50
2018-03-27T04:24:54.057Z,91.10
2018-03-27T04:27:21.679Z,90.70
2018-03-27T04:29:50.149Z,91.60
2018-03-27T04:32:17.772Z,91.20
2018-03-27T04:34:45.400Z,91.80
2018-03-27T04:37:13.024Z,91.60
2018-03-27T04:39:40.655Z,92.00
2018-03-27T04:42:08.289Z,92.10
2018-03-27T04:44:35.892Z,92.20
2018-03-27T04:47:03.516Z,91.90
2018-03-27T04:49:31.902Z,91.00
2018-03-27T04:52:00.295Z,91.40
2018-03-27T04:54:27.933Z,91.40
2018-03-27T04:56:55.548Z,91.50
2018-03-27T04:59:23.175Z,92.00
2018-03-27T05:01:51.568Z,92.50
2018-03-27T05:04:19.964Z,92.70
2018-03-27T05:06:47.603Z,92.70
2018-03-27T05:09:15.227Z,92.30
2018-03-27T05:11:42.861Z,92.70
2018-03-27T05:14:10.481Z,92.90
2018-03-27T05:16:38.115Z,92.50
2018-03-27T05:19:05.744Z,93.00
2018-03-27T05:21:34.142Z,92.70
2018-03-27T05:24:01.775Z,92.60
2018-03-27T05:26:29.445Z,93.10
2018-03-27T05:28:57.069Z,92.90
2018-03-27T05:31:24.685Z,93.20
2018-03-27T05:33:53.080Z,93.30
2018-03-27T05:36:21.489Z,93.70
2018-03-27T05:38:49.100Z,93.60
2018-03-27T05:41:16.729Z,93.80
2018-03-27T05:43:44.368Z,93.70
2018-03-27T05:46:12.761Z,93.60
2018-03-27T05:48:40.388Z,93.60
2018-03-27T05:51:08.013Z,93.60
2018-03-27T05:53:35.640Z,93.40
2018-03-27T05:56:04.087Z,93.80
2018-03-27T05:58:31.664Z,93.80
2018-03-27T06:00:59.285Z,93.80
2018-03-27T06:03:26.924Z,93.60
2018-03-27T06:05:54.547Z,93.50
2018-03-27T06:08:22.191Z,93.50
2018-03-27T06:10:49.808Z,93.60
2018-03-27T06:13:17.433Z,93.50
2018-03-27T06:15:45.064Z,93.50
2018-03-27T06:18:12.693Z,93.60
2018-03-27T06:20:40.316Z,93.50
2018-03-27T06:23:07.954Z,93.40
2018-03-27T06:25:35.576Z,93.30
2018-03-27T06:28:03.210Z,93.40
2018-03-27T06:30:30.840Z,93.60
2018-03-27T06:32:59.233Z,93.40
2018-03-27T06:35:27.633Z,93.20
2018-03-27T06:37:55.274Z,93.20
2018-03-27T06:40:22.896Z,93.20
2018-03-27T06:42:50.526Z,92.80
2018-03-27T06:45:18.148Z,92.70
2018-03-27T06:47:45.794Z,92.50
2018-03-27T06:50:13.404Z,92.10
2018-03-27T06:52:41.030Z,91.90
2018-03-27T06:55:09.237Z,91.90
2018-03-27T06:57:39.670Z,90.50
2018-03-27T07:00:07.300Z,90.50
2018-03-27T07:02:34.966Z,90.60
2018-03-27T07:05:02.558Z,90.30
2018-03-27T07:07:30.176Z,90.10
2018-03-27T07:09:57.834Z,90.20
2018-03-27T07:12:26.202Z,90.00
2018-03-27T07:14:54.589Z,90.00
2018-03-27T07:17:22.216Z,90.00
2018-03-27T07:19:49.902Z,87.40
2018-03-27T07:22:17.486Z,87.90
2018-03-27T07:24:45.116Z,87.50
2018-03-27T07:27:12.769Z,86.80
2018-03-27T07:29:40.382Z,86.90
2018-03-27T07:32:08.009Z,85.30
2018-03-27T07:34:35.756Z,83.50
2018-03-27T07:37:03.378Z,82.30
2018-03-27T07:39:31.009Z,80.20
2018-03-27T07:41:58.638Z,78.60
2018-03-27T07:44:26.260Z,77.70
2018-03-27T07:46:53.884Z,80.30
2018-03-27T07:49:21.504Z,80.50
2018-03-27T07:51:49.144Z,73.90
2018-03-27T07:54:16.771Z,75.70
2018-03-27T07:56:44.384Z,74.20
2018-03-27T07:59:12.003Z,76.40
2018-03-27T08:01:39.636Z,76.30
2018-03-27T08:04:08.025Z,72.40
2018-03-27T08:06:36.411Z,74.80
2018-03-27T08:09:04.924Z,74.00
2018-03-27T08:11:32.540Z,72.70
2018-03-27T08:14:00.168Z,72.50
2018-03-27T08:16:27.788Z,70.40
2018-03-27T08:18:56.174Z,70.10
2018-03-27T08:21:24.563Z,71.30
2018-03-27T08:23:52.196Z,71.20
2018-03-27T08:26:19.808Z,72.00
2018-03-27T08:28:47.424Z,67.30
2018-03-27T08:31:15.084Z,66.60
2018-03-27T08:33:42.709Z,67.50
2018-03-27T08:36:10.340Z,68.00
2018-03-27T08:38:38.724Z,61.70
2018-03-27T08:41:07.124Z,61.10
2018-03-27T08:43:35.521Z,62.40
2018-03-27T08:46:03.133Z,62.20
2018-03-27T08:48:30.757Z,60.00
2018-03-27T08:50:58.368Z,61.00
2018-03-27T08:53:25.993Z,59.40
2018-03-27T08:55:53.616Z,62.60
2018-03-27T08:58:22.008Z,60.00
2018-03-27T09:00:50.433Z,57.50
2018-03-27T09:03:18.021Z,57.60
2018-03-27T09:05:45.649Z,56.70
2018-03-27T09:08:13.268Z,50.60
2018-03-27T09:10:40.896Z,51.60
2018-03-27T09:13:08.536Z,47.50
2018-03-27T09:15:36.923Z,52.30
2018-03-27T09:18:04.549Z,52.40
2018-03-27T09:20:32.176Z,49.00
2018-03-27T09:22:59.796Z,43.80
2018-03-27T09:25:28.197Z,41.10
2018-03-27T09:27:55.833Z,40.90
2018-03-27T09:30:23.448Z,42.90
2018-03-27T09:32:51.072Z,39.10
2018-03-27T09:35:18.710Z,39.80
2018-03-27T09:37:46.325Z,38.50
2018-03-27T09:40:14.721Z,41.00
2018-03-27T09:42:42.340Z,40.90
2018-03-27T09:45:09.961Z,31.50
2018-03-27T09:47:37.581Z,33.60
2018-03-27T09:50:05.204Z,34.30
2018-03-27T09:52:32.829Z,31.60
2018-03-27T09:55:00.465Z,34.50
2018-03-27T09:57:28.085Z,31.20
2018-03-27T09:59:55.709Z,30.70
2018-03-27T10:02:23.341Z,29.70
2018-03-27T10:04:50.964Z,30.00
2018-03-27T10:07:18.584Z,28.80
2018-03-27T10:09:47.100Z,29.20
2018-03-27T10:12:14.731Z,27.90
2018-03-27T10:14:42.373Z,29.00
2018-03-27T10:17:09.992Z,27.70
2018-03-27T10:19:37.628Z,26.80
2018-03-27T10:22:05.246Z,29.20
2018-03-27T10:24:33.635Z,31.40
2018-03-27T10:27:01.258Z,31.40
2018-03-27T10:29:28.880Z,28.80
2018-03-27T10:31:56.500Z,28.40
2018-03-27T10:34:24.177Z,30.90
2018-03-27T10:36:51.757Z,29.00
2018-03-27T10:39:20.144Z,33.10
2018-03-27T10:41:47.776Z,33.10
2018-03-27T10:44:15.404Z,34.20
2018-03-27T10:46:43.042Z,35.50
2018-03-27T10:49:10.688Z,37.30
2018-03-27T10:51:38.300Z,36.00
2018-03-27T10:54:05.920Z,35.70
2018-03-27T10:56:33.546Z,33.80
2018-03-27T10:59:01.167Z,36.40
2018-03-27T11:01:29.553Z,32.80
2018-03-27T11:03:57.284Z,32.70
2018-03-27T11:06:25.641Z,35.80
2018-03-27T11:08:53.303Z,35.60
2018-03-27T11:11:20.954Z,31.60
2018-03-27T11:13:48.618Z,34.10
2018-03-27T11:16:17.043Z,35.30
2018-03-27T11:18:44.685Z,35.30
2018-03-27T11:21:12.340Z,35.20
2018-03-27T11:23:40.008Z,32.10
2018-03-27T11:26:07.646Z,30.70
2018-03-27T11:28:36.077Z,31.70
2018-03-27T11:31:03.750Z,31.70
2018-03-27T11:33:31.403Z,35.30
2018-03-27T11:35:59.189Z,36.20
2018-03-27T11:38:26.826Z,36.10
2018-03-27T11:40:54.510Z,37.00
2018-03-27T11:43:22.175Z,34.70
2018-03-27T11:45:49.830Z,36.10
2018-03-27T11:48:17.575Z,33.60
2018-03-27T11:50:45.170Z,32.90
2018-03-27T11:53:12.815Z,37.20
2018-03-27T11:55:40.506Z,36.50
2018-03-27T11:58:08.153Z,35.20
2018-03-27T12:00:35.822Z,35.00
2018-03-27T12:03:03.495Z,36.00
2018-03-27T12:05:31.864Z,33.80
2018-03-27T12:07:59.566Z,33.80
2018-03-27T12:10:27.311Z,33.30
2018-03-27T12:12:54.952Z,35.00
2018-03-27T12:15:23.367Z,38.30
2018-03-27T12:17:50.999Z,38.20
2018-03-27T12:20:19.410Z,38.70
2018-03-27T12:22:47.035Z,38.70
2018-03-27T12:25:14.664Z,38.80
2018-03-27T12:27:42.293Z,40.00
2018-03-27T12:30:09.921Z,39.50
2018-03-27T12:32:37.549Z,36.50
2018-03-27T12:35:05.177Z,35.60
2018-03-27T12:37:33.573Z,40.30
2018-03-27T12:40:01.297Z,40.30
2018-03-27T12:42:28.935Z,39.00
2018-03-27T12:44:56.522Z,36.70
2018-03-27T12:47:24.144Z,36.10
2018-03-27T12:49:51.774Z,40.00
2018-03-27T12:52:19.401Z,37.80
2018-03-27T12:54:47.020Z,41.20
2018-03-27T12:57:15.420Z,41.20
2018-03-27T12:59:43.052Z,41.10
2018-03-27T13:02:11.603Z,39.30
2018-03-27T13:04:39.239Z,39.30
2018-03-27T13:07:06.868Z,41.80
2018-03-27T13:09:35.264Z,41.70
2018-03-27T13:12:02.898Z,41.70
2018-03-27T13:14:30.524Z,40.00
2018-03-27T13:16:58.157Z,40.40
2018-03-27T13:19:25.785Z,40.30
2018-03-27T13:21:53.415Z,39.70
2018-03-27T13:24:21.045Z,39.10
2018-03-27T13:26:48.685Z,42.50
2018-03-27T13:29:16.320Z,41.30
2018-03-27T13:31:43.948Z,42.80
2018-03-27T13:34:11.576Z,44.20
2018-03-27T13:36:39.200Z,42.80
2018-03-27T13:39:07.671Z,39.30
2018-03-27T13:41:35.235Z,39.20
2018-03-27T13:44:02.871Z,37.00
2018-03-27T13:46:30.497Z,38.00
2018-03-27T13:48:58.128Z,39.60
2018-03-27T13:51:27.261Z,40.70
2018-03-27T13:53:54.892Z,40.70
2018-03-27T13:56:22.524Z,38.80
2018-03-27T13:58:50.168Z,40.60
2018-03-27T14:01:17.794Z,40.50
2018-03-27T14:03:45.417Z,42.30
2018-03-27T14:06:13.059Z,41.00
2018-03-27T14:08:40.688Z,43.60
2018-03-27T14:11:08.315Z,39.70
2018-03-27T14:13:36.069Z,43.30
2018-03-27T14:16:03.684Z,44.20
2018-03-27T14:18:31.328Z,45.00
2018-03-27T14:20:58.972Z,42.40
2018-03-27T14:23:26.596Z,42.90
2018-03-27T14:25:54.266Z,44.80
2018-03-27T14:28:29.019Z,46.20
2018-03-27T14:30:56.639Z,45.50
2018-03-27T14:33:25.033Z,47.60
2018-03-27T14:35:52.669Z,47.70
2018-03-27T14:38:20.302Z,48.00
2018-03-27T14:40:47.929Z,49.00
2018-03-27T14:43:15.564Z,47.70
2018-03-27T14:45:43.179Z,49.50
2018-03-27T14:48:11.576Z,50.90
2018-03-27T14:50:39.960Z,53.10
2018-03-27T14:53:07.644Z,53.00
2018-03-27T14:55:35.238Z,51.70
2018-03-27T14:58:02.868Z,55.10
2018-03-27T15:00:30.488Z,57.20
2018-03-27T15:02:58.121Z,62.60
2018-03-27T15:05:25.749Z,64.20
2018-03-27T15:07:53.376Z,59.70
2018-03-27T15:10:21.004Z,63.90
2018-03-27T15:12:48.632Z,65.30
2018-03-27T15:15:16.266Z,65.00
2018-03-27T15:17:43.885Z,65.30
2018-03-27T15:20:19.407Z,66.50
2018-03-27T15:22:48.538Z,68.40
2018-03-27T15:25:16.360Z,67.30
2018-03-27T15:27:44.103Z,67.10
2018-03-27T15:30:12.937Z,65.40
2018-03-27T15:32:41.442Z,64.70
2018-03-27T15:35:10.200Z,64.70
2018-03-27T15:37:38.358Z,68.50
2018-03-27T15:40:06.076Z,63.90
2018-03-27T15:42:37.075Z,67.80
2018-03-27T15:45:04.910Z,68.20
2018-03-27T15:47:33.380Z,68.30
2018-03-27T15:50:03.176Z,66.60
2018-03-27T15:52:30.943Z,66.70
2018-03-27T15:54:58.744Z,70.40
2018-03-27T15:57:27.831Z,67.20
2018-03-27T15:59:56.619Z,68.10
2018-03-27T16:02:24.414Z,70.60
2018-03-27T16:04:52.144Z,70.80
2018-03-27T16:07:19.755Z,71.10
2018-03-27T16:09:47.377Z,71.20
2018-03-27T16:12:14.989Z,72.40
2018-03-27T16:14:42.612Z,72.50
2018-03-27T16:17:10.239Z,72.50
2018-03-27T16:19:37.857Z,69.30
2018-03-27T16:22:06.253Z,70.50
2018-03-27T16:24:33.872Z,70.40
2018-03-27T16:27:01.497Z,72.00
2018-03-27T16:29:29.121Z,75.30
2018-03-27T16:31:56.742Z,73.80
2018-03-27T16:34:24.364Z,75.40
2018-03-27T16:36:52.801Z,77.90
2018-03-27T16:39:20.422Z,77.90
2018-03-27T16:41:55.601Z,78.90
2018-03-27T16:44:23.232Z,78.80
2018-03-27T16:46:51.616Z,80.60
2018-03-27T16:49:19.231Z,80.60
2018-03-27T16:51:46.856Z,80.50
2018-03-27T16:54:14.488Z,83.40
2018-03-27T16:56:42.112Z,82.60
2018-03-27T16:59:09.733Z,82.10
2018-03-27T17:01:38.126Z,85.40
2018-03-27T17:04:05.758Z,85.40
2018-03-27T17:06:33.377Z,85.20
2018-03-27T17:09:00.993Z,83.80
2018-03-27T17:11:28.612Z,82.60
2018-03-27T17:13:56.242Z,84.50
2018-03-27T17:16:26.654Z,84.40
2018-03-27T17:18:54.273Z,84.30
2018-03-27T17:21:21.904Z,86.00
2018-03-27T17:23:50.305Z,85.00
2018-03-27T17:26:17.921Z,84.90
2018-03-27T17:28:45.548Z,85.40
2018-03-27T17:31:13.173Z,84.50
2018-03-27T17:33:40.798Z,86.00
2018-03-27T17:36:08.416Z,84.20
2018-03-27T17:38:36.804Z,83.80
2018-03-27T17:41:05.229Z,82.40
2018-03-27T17:43:32.840Z,82.30
2018-03-27T17:46:00.464Z,85.40
2018-03-27T17:48:28.093Z,83.50
2018-03-27T17:50:55.745Z,82.20
2018-03-27T17:53:30.733Z,82.60
2018-03-27T17:55:58.365Z,83.70
2018-03-27T17:58:25.988Z,85.10
2018-03-27T18:00:53.620Z,85.30
2018-03-27T18:03:21.236Z,83.90
2018-03-27T18:05:48.861Z,85.00
2018-03-27T18:08:16.481Z,85.20
2018-03-27T18:10:44.873Z,83.30
2018-03-27T18:13:12.501Z,83.10
2018-03-27T18:15:40.116Z,83.20
2018-03-27T18:18:07.741Z,83.10
2018-03-27T18:20:35.360Z,82.90
2018-03-27T18:23:02.981Z,82.70
2018-03-27T18:25:30.608Z,83.50
2018-03-27T18:27:58.239Z,83.50
2018-03-27T18:30:25.874Z,81.70
2018-03-27T18:32:53.493Z,82.40
2018-03-27T18:35:21.199Z,82.10
2018-03-27T18:37:48.904Z,85.50
2018-03-27T18:40:17.334Z,84.10
2018-03-27T18:42:44.991Z,84.10
2018-03-27T18:45:12.667Z,85.20
2018-03-27T18:47:40.318Z,85.70
2018-03-27T18:50:07.968Z,86.40
2018-03-27T18:52:35.635Z,87.90
2018-03-27T18:55:03.276Z,86.80
2018-03-27T18:57:32.618Z,86.60
2018-03-27T19:00:00.365Z,85.70
2018-03-27T19:02:27.995Z,85.30
2018-03-27T19:04:55.653Z,84.60
2018-03-27T19:07:23.286Z,87.20
2018-03-27T19:09:50.952Z,83.70
2018-03-27T19:12:18.603Z,86.40
2018-03-27T19:14:47.006Z,85.90
2018-03-27T19:17:21.071Z,85.80
2018-03-27T19:19:48.897Z,85.60
2018-03-27T19:22:16.545Z,86.40
2018-03-27T19:24:44.210Z,87.10
2018-03-27T19:27:11.863Z,86.50
2018-03-27T19:29:40.278Z,85.90
2018-03-27T19:32:07.924Z,85.90
2018-03-27T19:34:35.585Z,85.90
2018-03-27T19:37:03.292Z,84.30
2018-03-27T19:39:30.935Z,84.80
2018-03-27T19:42:04.217Z,84.70
2018-03-27T19:44:31.901Z,85.60
2018-03-27T19:46:59.556Z,83.80
2018-03-27T19:49:27.230Z,85.60
2018-03-27T19:51:54.937Z,84.00
2018-03-27T19:54:22.846Z,85.90
2018-03-27T19:56:51.263Z,86.40
2018-03-27T19:59:18.931Z,86.40
2018-03-27T20:01:46.581Z,84.70
2018-03-27T20:04:14.226Z,85.70
2018-03-27T20:06:41.911Z,83.70
2018-03-27T20:09:09.537Z,84.60
2018-03-27T20:11:37.194Z,85.40
2018-03-27T20:14:04.855Z,86.40
2018-03-27T20:16:32.518Z,86.10
2018-03-27T20:19:00.170Z,85.00
2018-03-27T20:21:27.863Z,85.90
2018-03-27T20:23:55.521Z,84.50
2018-03-27T20:26:23.199Z,85.60
2018-03-27T20:28:50.855Z,84.80
2018-03-27T20:31:18.498Z,85.10
2018-03-27T20:33:46.264Z,84.30
2018-03-27T20:36:13.916Z,85.60
2018-03-27T20:38:41.566Z,86.60
2018-03-27T20:41:09.246Z,86.30
2018-03-27T20:43:36.900Z,87.00
2018-03-27T20:46:05.291Z,87.40
2018-03-27T20:48:32.936Z,87.50
2018-03-27T20:51:01.333Z,89.00
2018-03-27T20:53:29.077Z,88.30
2018-03-27T20:55:57.548Z,90.10
2018-03-27T20:58:25.188Z,90.10
2018-03-27T21:00:52.846Z,90.10
2018-03-27T21:03:20.505Z,90.00
2018-03-27T21:05:48.178Z,90.00
2018-03-27T21:08:15.835Z,89.90
2018-03-27T21:10:43.470Z,90.00
2018-03-27T21:13:11.852Z,90.00
2018-03-27T21:15:40.258Z,88.70
2018-03-27T21:18:07.881Z,88.70
2018-03-27T21:20:52.445Z,88.30
2018-03-27T21:23:20.081Z,88.90
2018-03-27T21:25:47.700Z,89.10
2018-03-27T21:28:15.349Z,89.10
2018-03-27T21:30:43.733Z,87.80
2018-03-27T21:33:12.117Z,87.30
2018-03-27T21:35:40.507Z,88.90
2018-03-27T21:38:08.895Z,88.40
2018-03-27T21:40:36.524Z,88.30
2018-03-27T21:43:04.148Z,88.90
2018-03-27T21:45:31.768Z,89.10
2018-03-27T21:47:59.392Z,88.90
2018-03-27T21:50:27.014Z,88.00
2018-03-27T21:52:55.408Z,88.90
2018-03-27T21:55:23.033Z,88.90
2018-03-27T21:57:50.665Z,88.10
2018-03-27T22:00:21.745Z,88.90
2018-03-27T22:02:49.359Z,89.00
2018-03-27T22:05:16.985Z,89.60
2018-03-27T22:07:44.611Z,88.60
2018-03-27T22:10:12.224Z,89.00
2018-03-27T22:12:39.843Z,90.00
2018-03-27T22:15:07.469Z,90.00
2018-03-27T22:17:35.860Z,90.60
2018-03-27T22:20:04.245Z,90.60
2018-03-27T22:22:32.019Z,90.60
2018-03-27T22:25:00.388Z,90.50
2018-03-27T22:27:28.783Z,90.70
2018-03-27T22:29:56.420Z,90.80
2018-03-27T22:32:24.065Z,90.50
2018-03-27T22:34:51.677Z,90.80
2018-03-27T22:37:20.064Z,90.90
2018-03-27T22:39:47.897Z,90.90
2018-03-27T22:42:15.517Z,90.60
2018-03-27T22:44:43.142Z,90.30
2018-03-27T22:47:10.752Z,90.30
2018-03-27T22:49:38.373Z,90.50
2018-03-27T22:52:06.005Z,90.30
2018-03-27T22:54:33.628Z,90.30
2018-03-27T22:57:01.265Z,90.00
2018-03-27T22:59:28.880Z,90.00
2018-03-27T23:01:56.488Z,90.10
2018-03-27T23:04:24.104Z,90.20
2018-03-27T23:06:51.717Z,89.90
2018-03-27T23:09:19.337Z,90.10
2018-03-27T23:11:46.950Z,90.20
2018-03-27T23:14:14.569Z,90.30
2018-03-27T23:16:42.193Z,90.50
2018-03-27T23:19:09.808Z,90.50
2018-03-27T23:21:37.424Z,90.60
2018-03-27T23:24:05.052Z,90.40
2018-03-27T23:26:33.699Z,90.60
2018-03-27T23:29:02.089Z,91.20
2018-03-27T23:31:29.724Z,91.20
2018-03-27T23:33:57.344Z,90.90
2018-03-27T23:36:24.973Z,91.00
2018-03-27T23:38:53.373Z,91.10
2018-03-27T23:41:21.753Z,90.90
2018-03-27T23:43:49.389Z,90.90
2018-03-27T23:46:17.973Z,91.00
2018-03-27T23:48:45.756Z,91.20
2018-03-27T23:51:14.145Z,92.00
2018-03-27T23:53:42.532Z,92.30
2018-03-27T23:56:10.176Z,92.30
2018-03-27T23:58:37.793Z,92.50
